createdAt,value
2023-06-29T00:02:20.719Z,18.09
2023-06-29T00:04:50.611Z,18.09
2023-06-29T00:07:19.454Z,18.07
2023-06-29T00:09:48.073Z,18.06
2023-06-29T00:12:16.553Z,18.04
2023-06-29T00:14:44.888Z,18.03
2023-06-29T00:17:16.306Z,17.98
2023-06-29T00:19:48.861Z,17.95
2023-06-29T00:22:18.227Z,17.91
2023-06-29T00:24:56.876Z,17.81
2023-06-29T00:27:25.739Z,17.80
2023-06-29T00:29:54.384Z,17.81
2023-06-29T00:32:24.138Z,17.84
2023-06-29T00:34:52.528Z,17.85
2023-06-29T00:37:20.918Z,17.84
2023-06-29T00:39:51.648Z,17.81
2023-06-29T00:42:20.265Z,17.83
2023-06-29T00:44:49.479Z,17.82
2023-06-29T00:47:18.061Z,17.80
2023-06-29T00:49:47.907Z,17.80
2023-06-29T00:52:17.848Z,17.75
2023-06-29T00:54:46.495Z,17.72
2023-06-29T00:57:15.025Z,17.70
2023-06-29T00:59:43.684Z,17.71
2023-06-29T01:02:12.128Z,17.71
2023-06-29T01:04:41.987Z,17.66
2023-06-29T01:07:16.274Z,17.61
2023-06-29T01:09:46.931Z,17.56
2023-06-29T01:12:17.499Z,17.49
2023-06-29T01:14:47.348Z,17.46
2023-06-29T01:17:20.646Z,17.44
2023-06-29T01:19:51.838Z,17.39
2023-06-29T01:22:23.675Z,17.37
2023-06-29T01:24:54.003Z,17.39
2023-06-29T01:27:22.711Z,17.42
2023-06-29T01:29:56.670Z,17.40
2023-06-29T01:32:27.411Z,17.37
2023-06-29T01:34:56.166Z,17.34
2023-06-29T01:37:30.319Z,17.33
2023-06-29T01:40:03.583Z,17.34
2023-06-29T01:42:34.216Z,17.36
2023-06-29T01:45:04.289Z,17.32
2023-06-29T01:47:33.520Z,17.30
2023-06-29T01:50:02.447Z,17.26
2023-06-29T01:52:30.994Z,17.25
2023-06-29T01:55:00.832Z,17.20
2023-06-29T01:57:29.238Z,17.18
2023-06-29T01:59:57.698Z,17.15
2023-06-29T02:02:26.195Z,17.11
2023-06-29T02:04:54.671Z,17.07
2023-06-29T02:07:23.157Z,17.02
2023-06-29T02:09:52.555Z,17.02
2023-06-29T02:12:22.277Z,17.04
2023-06-29T02:14:50.692Z,17.04
2023-06-29T02:17:19.273Z,17.05
2023-06-29T02:19:47.646Z,17.05
2023-06-29T02:22:16.158Z,17.02
2023-06-29T02:24:44.505Z,16.96
2023-06-29T02:27:12.945Z,16.95
2023-06-29T02:29:42.785Z,16.96
2023-06-29T02:32:12.466Z,16.98
2023-06-29T02:34:40.843Z,16.97
2023-06-29T02:37:09.279Z,16.96
2023-06-29T02:39:37.700Z,16.96
2023-06-29T02:42:06.399Z,16.91
2023-06-29T02:44:34.806Z,16.89
2023-06-29T02:47:04.713Z,16.84
2023-06-29T02:49:33.105Z,16.81
2023-06-29T02:52:01.584Z,16.82
2023-06-29T02:54:29.928Z,16.81
2023-06-29T02:56:58.331Z,16.81
2023-06-29T02:59:26.767Z,16.74
2023-06-29T03:01:56.213Z,16.69
2023-06-29T03:04:25.943Z,16.67
2023-06-29T03:06:54.430Z,16.66
2023-06-29T03:09:22.883Z,16.67
2023-06-29T03:11:51.334Z,16.64
2023-06-29T03:14:19.770Z,16.65
2023-06-29T03:16:48.202Z,16.67
2023-06-29T03:19:16.614Z,16.68
2023-06-29T03:21:46.368Z,16.69
2023-06-29T03:24:14.714Z,16.66
2023-06-29T03:26:43.072Z,16.62
2023-06-29T03:29:11.556Z,16.58
2023-06-29T03:31:39.899Z,16.57
2023-06-29T03:34:08.255Z,16.57
2023-06-29T03:36:36.628Z,16.53
2023-06-29T03:39:06.428Z,16.49
2023-06-29T03:41:34.819Z,16.50
2023-06-29T03:44:03.265Z,16.45
2023-06-29T03:46:31.660Z,16.45
2023-06-29T03:49:00.068Z,16.42
2023-06-29T03:51:28.577Z,16.43
2023-06-29T03:53:56.925Z,16.41
2023-06-29T03:56:26.868Z,16.40
2023-06-29T03:58:55.378Z,16.39
2023-06-29T04:01:23.905Z,16.37
2023-06-29T04:03:52.343Z,16.36
2023-06-29T04:06:28.695Z,16.39
2023-06-29T04:08:57.026Z,16.37
2023-06-29T04:11:26.799Z,16.36
2023-06-29T04:13:55.249Z,16.36
2023-06-29T04:16:23.694Z,16.36
2023-06-29T04:18:52.050Z,16.37
2023-06-29T04:21:20.519Z,16.34
2023-06-29T04:23:49.011Z,16.31
2023-06-29T04:26:17.527Z,16.26
2023-06-29T04:28:48.298Z,16.25
2023-06-29T04:31:16.860Z,16.22
2023-06-29T04:33:45.287Z,16.18
2023-06-29T04:36:14.795Z,16.23
2023-06-29T04:38:43.241Z,16.26
2023-06-29T04:41:11.806Z,16.30
2023-06-29T04:43:40.603Z,16.34
2023-06-29T04:46:10.596Z,16.39
2023-06-29T04:48:39.417Z,16.42
2023-06-29T04:51:08.393Z,16.46
2023-06-29T04:53:38.009Z,16.46
2023-06-29T04:56:07.088Z,16.49
2023-06-29T04:58:35.539Z,16.53
2023-06-29T05:01:04.483Z,16.60
2023-06-29T05:03:36.950Z,16.61
2023-06-29T05:06:05.606Z,16.64
2023-06-29T05:08:34.122Z,16.71
2023-06-29T05:11:02.955Z,16.70
2023-06-29T05:13:31.377Z,16.71
2023-06-29T05:15:59.852Z,16.72
2023-06-29T05:18:28.414Z,16.74
2023-06-29T05:20:58.835Z,16.77
2023-06-29T05:23:27.451Z,16.81
2023-06-29T05:25:55.835Z,16.87
2023-06-29T05:28:24.198Z,16.92
2023-06-29T05:30:52.618Z,16.96
2023-06-29T05:33:21.090Z,16.95
2023-06-29T05:35:54.142Z,16.95
2023-06-29T05:38:30.755Z,17.01
2023-06-29T05:41:01.858Z,17.06
2023-06-29T05:43:31.107Z,17.05
2023-06-29T05:45:59.657Z,17.09
2023-06-29T05:48:28.080Z,17.18
2023-06-29T05:50:56.520Z,17.25
2023-06-29T05:53:24.925Z,17.31
2023-06-29T05:55:54.751Z,17.37
2023-06-29T05:58:24.314Z,17.39
2023-06-29T06:00:53.176Z,17.43
2023-06-29T06:03:21.678Z,17.46
2023-06-29T06:05:50.429Z,17.50
2023-06-29T06:08:19.015Z,17.55
2023-06-29T06:10:48.172Z,17.57
2023-06-29T06:13:18.012Z,17.63
2023-06-29T06:15:46.492Z,17.67
2023-06-29T06:18:14.934Z,17.71
2023-06-29T06:20:43.774Z,17.77
2023-06-29T06:23:12.327Z,17.85
2023-06-29T06:25:40.713Z,17.92
2023-06-29T06:28:09.185Z,17.95
2023-06-29T06:30:39.564Z,18.01
2023-06-29T06:33:08.057Z,18.06
2023-06-29T06:35:42.644Z,18.12
2023-06-29T06:38:11.060Z,18.18
2023-06-29T06:40:39.419Z,18.25
2023-06-29T06:43:07.852Z,18.33
2023-06-29T06:45:36.254Z,18.39
2023-06-29T06:48:06.678Z,18.42
2023-06-29T06:50:35.111Z,18.47
2023-06-29T06:53:03.481Z,18.55
2023-06-29T06:55:31.855Z,18.63
2023-06-29T06:58:00.310Z,18.72
2023-06-29T07:00:28.964Z,18.79
2023-06-29T07:02:57.482Z,18.84
2023-06-29T07:05:27.387Z,18.87
2023-06-29T07:07:56.085Z,18.96
2023-06-29T07:10:24.473Z,19.02
2023-06-29T07:12:52.897Z,19.04
2023-06-29T07:15:21.324Z,19.08
2023-06-29T07:17:49.823Z,19.15
2023-06-29T07:25:22.595Z,19.40
2023-06-29T07:27:51.207Z,19.47
2023-06-29T07:30:19.676Z,19.57
2023-06-29T07:32:48.233Z,19.68
2023-06-29T07:35:16.865Z,19.77
2023-06-29T07:37:45.329Z,19.85
2023-06-29T07:40:15.230Z,19.94
2023-06-29T07:42:44.217Z,20.01
2023-06-29T07:45:13.476Z,20.06
2023-06-29T07:47:44.622Z,20.15
2023-06-29T07:50:13.117Z,20.21
2023-06-29T07:52:46.126Z,20.29
2023-06-29T07:55:15.991Z,20.35
2023-06-29T08:00:17.285Z,20.46
2023-06-29T08:02:46.443Z,20.56
2023-06-29T08:07:47.000Z,20.77
2023-06-29T08:10:16.946Z,20.83
2023-06-29T08:12:45.646Z,20.88
2023-06-29T08:15:14.200Z,20.94
2023-06-29T08:17:42.688Z,21.04
2023-06-29T08:20:13.508Z,21.14
2023-06-29T08:22:44.231Z,21.25
2023-06-29T08:25:13.470Z,21.40
2023-06-29T08:27:45.927Z,21.53
2023-06-29T08:30:14.914Z,21.65
2023-06-29T08:32:43.591Z,21.71
2023-06-29T08:35:12.244Z,21.80
2023-06-29T08:37:41.171Z,21.95
2023-06-29T08:40:11.304Z,22.08
2023-06-29T08:42:40.602Z,22.18
2023-06-29T08:45:11.343Z,22.33
2023-06-29T08:47:52.718Z,22.47
2023-06-29T08:50:26.611Z,22.55
2023-06-29T08:52:58.777Z,22.70
2023-06-29T08:55:27.703Z,22.84
2023-06-29T08:57:56.284Z,22.98
2023-06-29T09:00:29.547Z,23.14
2023-06-29T09:02:58.726Z,23.26
2023-06-29T09:05:30.804Z,23.32
2023-06-29T09:07:59.365Z,23.41
2023-06-29T09:10:27.889Z,23.49
2023-06-29T09:12:56.981Z,23.62
2023-06-29T09:15:29.842Z,23.77
2023-06-29T09:17:58.684Z,23.87
2023-06-29T09:20:28.834Z,23.97
2023-06-29T09:22:57.430Z,24.03
2023-06-29T09:25:34.515Z,24.11
2023-06-29T09:28:05.295Z,24.17
2023-06-29T09:30:39.968Z,24.25
2023-06-29T09:33:10.664Z,24.35
2023-06-29T09:35:40.813Z,24.44
2023-06-29T09:38:09.537Z,24.54
2023-06-29T09:40:49.247Z,24.66
2023-06-29T09:43:19.088Z,24.73
2023-06-29T09:45:49.225Z,24.73
2023-06-29T09:50:53.280Z,24.83
2023-06-29T09:53:30.664Z,24.88
2023-06-29T09:56:00.581Z,24.96
2023-06-29T09:58:30.214Z,25.02
2023-06-29T10:01:01.793Z,25.07
2023-06-29T10:03:32.514Z,25.19
2023-06-29T10:06:07.077Z,25.32
2023-06-29T10:08:37.877Z,25.42
2023-06-29T10:11:07.250Z,25.47
2023-06-29T10:13:39.499Z,25.53
2023-06-29T10:16:12.643Z,25.66
2023-06-29T10:18:43.849Z,25.84
2023-06-29T10:21:12.613Z,25.97
2023-06-29T10:23:45.243Z,26.08
2023-06-29T10:26:14.949Z,26.18
2023-06-29T10:28:43.974Z,26.28
2023-06-29T10:31:20.226Z,26.39
2023-06-29T10:33:49.350Z,26.46
2023-06-29T10:36:19.132Z,26.52
2023-06-29T10:38:47.718Z,26.60
2023-06-29T10:41:29.362Z,26.65
2023-06-29T10:43:59.877Z,26.71
2023-06-29T10:46:48.110Z,26.78
2023-06-29T10:49:23.618Z,26.83
2023-06-29T10:51:54.211Z,26.88
2023-06-29T10:54:26.238Z,26.89
2023-06-29T10:57:01.180Z,26.94
2023-06-29T10:59:30.804Z,27.00
2023-06-29T11:02:01.385Z,27.13
2023-06-29T11:04:30.272Z,27.22
2023-06-29T11:07:06.009Z,27.33
2023-06-29T11:09:35.469Z,27.43
2023-06-29T11:12:04.354Z,27.45
2023-06-29T11:14:39.025Z,27.53
2023-06-29T11:17:10.240Z,27.58
2023-06-29T11:19:45.156Z,27.56
2023-06-29T11:22:13.760Z,27.60
2023-06-29T11:24:43.777Z,27.62
2023-06-29T11:27:22.275Z,27.66
2023-06-29T11:29:55.761Z,27.64
2023-06-29T11:32:27.396Z,27.64
2023-06-29T11:34:59.365Z,27.78
2023-06-29T11:37:27.920Z,27.90
2023-06-29T11:39:56.601Z,28.02
2023-06-29T11:42:26.634Z,28.11
2023-06-29T11:45:03.844Z,28.17
2023-06-29T11:47:38.527Z,28.23
2023-06-29T11:50:11.132Z,28.32
2023-06-29T11:52:49.862Z,28.36
2023-06-29T11:55:20.498Z,28.46
2023-06-29T11:57:53.463Z,28.54
2023-06-29T12:00:31.592Z,28.63
2023-06-29T12:03:10.689Z,28.73
2023-06-29T12:05:43.943Z,28.72
2023-06-29T12:08:12.720Z,28.77
2023-06-29T12:10:41.595Z,28.88
2023-06-29T12:13:12.870Z,28.97
2023-06-29T12:18:19.031Z,29.16
2023-06-29T12:20:49.126Z,29.27
2023-06-29T12:23:17.957Z,29.33
2023-06-29T12:25:48.682Z,29.28
2023-06-29T12:28:17.443Z,29.22
2023-06-29T12:30:46.248Z,29.25
2023-06-29T12:33:15.723Z,29.31
2023-06-29T12:35:47.048Z,29.42
2023-06-29T12:38:15.659Z,29.49
2023-06-29T12:40:44.191Z,29.55
2023-06-29T12:43:12.662Z,29.60
2023-06-29T12:45:41.615Z,29.69
2023-06-29T12:48:10.206Z,29.76
2023-06-29T12:50:38.648Z,29.86
2023-06-29T12:53:08.487Z,29.89
2023-06-29T12:55:37.317Z,29.91
2023-06-29T12:58:05.797Z,29.94
2023-06-29T13:00:34.289Z,30.05
2023-06-29T13:03:08.737Z,30.00
2023-06-29T13:05:37.422Z,30.01
2023-06-29T13:08:06.276Z,30.10
2023-06-29T13:10:36.525Z,30.17
2023-06-29T13:13:06.537Z,30.19
2023-06-29T13:15:35.194Z,30.21
2023-06-29T13:18:03.615Z,30.31
2023-06-29T13:20:32.123Z,30.39
2023-06-29T13:23:10.442Z,30.46
2023-06-29T13:25:40.851Z,30.52
2023-06-29T13:28:09.252Z,30.56
2023-06-29T13:30:38.386Z,30.58
2023-06-29T13:33:06.921Z,30.60
2023-06-29T13:35:35.333Z,30.64
2023-06-29T13:38:03.725Z,30.62
2023-06-29T13:40:32.459Z,30.63
2023-06-29T13:43:02.262Z,30.66
2023-06-29T13:45:30.804Z,30.66
2023-06-29T13:48:04.002Z,30.67
2023-06-29T13:50:41.275Z,30.72
2023-06-29T13:53:10.682Z,30.79
2023-06-29T13:55:39.253Z,30.83
2023-06-29T13:58:09.028Z,30.81
2023-06-29T14:00:37.965Z,30.84
2023-06-29T14:03:07.521Z,30.88
2023-06-29T14:05:36.101Z,30.92
2023-06-29T14:08:04.931Z,30.96
2023-06-29T14:10:33.360Z,30.99
2023-06-29T14:13:01.878Z,30.99
2023-06-29T14:15:32.530Z,31.11
2023-06-29T14:18:01.144Z,31.22
2023-06-29T14:20:29.638Z,31.30
2023-06-29T14:22:58.366Z,31.36
2023-06-29T14:25:26.940Z,31.45
2023-06-29T14:27:55.595Z,31.55
2023-06-29T14:30:24.062Z,31.63
2023-06-29T14:32:54.128Z,31.68
2023-06-29T14:35:31.312Z,31.68
2023-06-29T14:38:13.154Z,31.56
2023-06-29T14:40:42.415Z,31.53
2023-06-29T14:43:11.994Z,31.48
2023-06-29T14:45:40.607Z,31.30
2023-06-29T14:48:10.566Z,31.10
2023-06-29T14:50:39.235Z,30.85
2023-06-29T14:53:07.696Z,30.70
2023-06-29T14:55:36.216Z,30.58
2023-06-29T14:58:05.675Z,30.52
2023-06-29T15:00:34.618Z,30.49
2023-06-29T15:03:14.523Z,30.53
2023-06-29T15:05:43.279Z,30.69
2023-06-29T15:08:11.996Z,30.84
2023-06-29T15:10:40.468Z,30.98
2023-06-29T15:13:09.218Z,31.10
2023-06-29T15:15:37.630Z,31.03
2023-06-29T15:18:06.381Z,30.94
2023-06-29T15:20:36.822Z,30.89
2023-06-29T15:23:05.286Z,30.81
2023-06-29T15:25:34.050Z,30.68
2023-06-29T15:28:02.610Z,30.58
2023-06-29T15:30:33.206Z,30.51
2023-06-29T15:33:05.235Z,30.44
2023-06-29T15:35:34.730Z,30.42
2023-06-29T15:38:04.620Z,30.48
2023-06-29T15:40:33.985Z,30.56
2023-06-29T15:43:02.518Z,30.66
2023-06-29T15:45:30.953Z,30.77
2023-06-29T15:47:59.573Z,30.86
2023-06-29T15:50:28.121Z,30.87
2023-06-29T15:52:56.543Z,30.87
2023-06-29T15:55:26.345Z,30.81
2023-06-29T15:57:54.781Z,30.72
2023-06-29T16:00:23.890Z,30.66
2023-06-29T16:02:52.424Z,30.60
2023-06-29T16:05:21.043Z,30.54
2023-06-29T16:07:49.495Z,30.52
2023-06-29T16:10:18.038Z,30.49
2023-06-29T16:12:48.119Z,30.42
2023-06-29T16:15:17.575Z,30.41
2023-06-29T16:17:46.010Z,30.42
2023-06-29T16:20:14.533Z,30.39
2023-06-29T16:22:43.196Z,30.31
2023-06-29T16:25:11.695Z,30.26
2023-06-29T16:27:40.080Z,30.26
2023-06-29T16:30:10.781Z,30.32
2023-06-29T16:32:49.322Z,30.35
2023-06-29T16:35:18.050Z,30.32
2023-06-29T16:37:47.655Z,30.26
2023-06-29T16:40:16.148Z,30.28
2023-06-29T16:42:44.558Z,30.33
2023-06-29T16:45:14.606Z,30.34
2023-06-29T16:47:43.087Z,30.30
2023-06-29T16:50:12.082Z,30.20
2023-06-29T16:52:40.560Z,30.10
2023-06-29T16:55:09.837Z,30.02
2023-06-29T16:57:38.283Z,30.07
2023-06-29T17:00:09.476Z,30.13
2023-06-29T17:02:39.491Z,30.16
2023-06-29T17:05:09.423Z,30.10
2023-06-29T17:07:38.147Z,30.00
2023-06-29T17:10:07.731Z,29.94
2023-06-29T17:12:36.247Z,29.84
2023-06-29T17:15:05.126Z,29.77
2023-06-29T17:17:33.661Z,29.69
2023-06-29T17:20:03.978Z,29.61
2023-06-29T17:22:32.461Z,29.55
2023-06-29T17:25:00.887Z,29.45
2023-06-29T17:27:29.370Z,29.38
2023-06-29T17:29:57.776Z,29.43
2023-06-29T17:32:26.309Z,29.44
2023-06-29T17:34:55.118Z,29.36
2023-06-29T17:37:24.946Z,29.32
2023-06-29T17:39:53.380Z,29.30
2023-06-29T17:42:23.316Z,29.23
2023-06-29T17:44:51.797Z,29.29
2023-06-29T17:47:20.452Z,29.42
2023-06-29T17:49:49.900Z,29.44
2023-06-29T17:52:18.361Z,29.30
2023-06-29T17:54:49.568Z,29.16
2023-06-29T17:57:18.382Z,29.03
2023-06-29T17:59:46.921Z,28.90
2023-06-29T18:02:15.520Z,28.79
2023-06-29T18:04:44.055Z,28.68
2023-06-29T18:07:12.969Z,28.59
2023-06-29T18:09:41.562Z,28.51
2023-06-29T18:12:11.772Z,28.41
2023-06-29T18:14:40.503Z,28.34
2023-06-29T18:17:08.984Z,28.25
2023-06-29T18:19:37.437Z,28.20
2023-06-29T18:22:08.303Z,28.13
2023-06-29T18:24:37.082Z,28.06
2023-06-29T18:27:06.067Z,27.99
2023-06-29T18:29:37.361Z,27.91
2023-06-29T18:32:06.879Z,27.84
2023-06-29T18:34:35.339Z,27.79
2023-06-29T18:37:03.972Z,27.71
2023-06-29T18:39:32.600Z,27.64
2023-06-29T18:42:01.011Z,27.61
2023-06-29T18:44:29.483Z,27.55
2023-06-29T18:47:09.392Z,27.47
2023-06-29T18:49:50.600Z,27.40
2023-06-29T18:52:21.319Z,27.31
2023-06-29T18:54:51.703Z,27.22
2023-06-29T18:57:20.143Z,27.13
2023-06-29T18:59:48.622Z,27.03
2023-06-29T19:02:18.526Z,26.98
2023-06-29T19:04:46.990Z,26.91
2023-06-29T19:07:17.172Z,26.85
2023-06-29T19:09:51.897Z,26.81
2023-06-29T19:12:20.368Z,26.73
2023-06-29T19:14:48.808Z,26.65
2023-06-29T19:17:18.606Z,26.60
2023-06-29T19:19:47.084Z,26.54
2023-06-29T19:22:15.562Z,26.48
2023-06-29T19:24:44.027Z,26.43
2023-06-29T19:27:12.538Z,26.36
2023-06-29T19:29:41.355Z,26.29
2023-06-29T19:32:11.298Z,26.24
2023-06-29T19:34:41.294Z,26.12
2023-06-29T19:37:10.869Z,25.92
2023-06-29T19:39:40.609Z,25.71
2023-06-29T19:42:10.457Z,25.52
2023-06-29T19:44:38.828Z,25.35
2023-06-29T19:47:07.420Z,25.13
2023-06-29T19:49:36.007Z,25.03
2023-06-29T19:52:07.021Z,24.96
2023-06-29T19:54:35.421Z,24.95
2023-06-29T19:57:04.004Z,24.97
2023-06-29T19:59:32.436Z,24.95
2023-06-29T20:02:01.477Z,24.94
2023-06-29T20:04:30.065Z,24.95
2023-06-29T20:06:58.523Z,24.90
2023-06-29T20:09:28.334Z,24.88
2023-06-29T20:11:56.741Z,24.84
2023-06-29T20:14:25.646Z,24.73
2023-06-29T20:16:54.871Z,24.70
2023-06-29T20:19:23.846Z,24.70
2023-06-29T20:21:54.022Z,24.63
2023-06-29T20:24:22.437Z,24.45
2023-06-29T20:26:52.238Z,24.36
2023-06-29T20:29:20.685Z,24.25
2023-06-29T20:31:49.315Z,24.21
2023-06-29T20:34:17.875Z,24.17
2023-06-29T20:36:46.362Z,24.18
2023-06-29T20:39:14.955Z,24.17
2023-06-29T20:41:43.422Z,24.06
2023-06-29T20:44:15.349Z,23.97
2023-06-29T20:46:44.179Z,23.90
2023-06-29T20:49:12.661Z,23.80
2023-06-29T20:51:41.412Z,23.71
2023-06-29T20:54:09.821Z,23.63
2023-06-29T20:56:38.255Z,23.56
2023-06-29T20:59:06.708Z,23.49
2023-06-29T21:01:36.534Z,23.51
2023-06-29T21:04:05.189Z,23.62
2023-06-29T21:06:34.947Z,23.69
2023-06-29T21:09:03.522Z,23.65
2023-06-29T21:11:33.024Z,23.59
2023-06-29T21:14:01.792Z,23.60
2023-06-29T21:16:30.420Z,23.56
2023-06-29T21:19:00.769Z,23.52
2023-06-29T21:21:29.855Z,23.46
2023-06-29T21:23:58.719Z,23.42
2023-06-29T21:26:27.859Z,23.34
2023-06-29T21:28:59.385Z,23.26
2023-06-29T21:31:28.272Z,23.27
2023-06-29T21:33:57.282Z,23.26
2023-06-29T21:36:28.220Z,23.22
2023-06-29T21:38:57.174Z,23.18
2023-06-29T21:41:25.593Z,23.14
2023-06-29T21:43:54.040Z,23.09
2023-06-29T21:46:22.484Z,23.05
2023-06-29T21:48:50.961Z,22.93
2023-06-29T21:51:19.448Z,22.79
2023-06-29T21:53:49.381Z,22.70
2023-06-29T21:56:25.867Z,22.68
2023-06-29T21:58:55.412Z,22.74
2023-06-29T22:01:24.112Z,22.74
2023-06-29T22:03:52.802Z,22.75
2023-06-29T22:06:21.453Z,22.67
2023-06-29T22:08:51.214Z,22.63
2023-06-29T22:11:20.976Z,22.61
2023-06-29T22:13:50.560Z,22.57
2023-06-29T22:16:21.560Z,22.54
2023-06-29T22:18:51.966Z,22.50
2023-06-29T22:21:22.880Z,22.45
2023-06-29T22:23:54.227Z,22.53
2023-06-29T22:26:26.774Z,22.58
2023-06-29T22:28:55.254Z,22.64
2023-06-29T22:31:23.833Z,22.71
2023-06-29T22:33:52.330Z,22.77
2023-06-29T22:36:20.821Z,22.78
2023-06-29T22:38:49.217Z,22.72
2023-06-29T22:41:19.007Z,22.61
2023-06-29T22:43:47.367Z,22.43
2023-06-29T22:46:15.792Z,22.30
2023-06-29T22:48:48.146Z,22.21
2023-06-29T22:51:16.870Z,22.13
2023-06-29T22:53:45.254Z,22.05
2023-06-29T22:56:13.732Z,21.97
2023-06-29T22:58:43.714Z,21.92
2023-06-29T23:01:12.315Z,21.89
2023-06-29T23:03:40.788Z,21.90
2023-06-29T23:06:09.251Z,21.91
2023-06-29T23:08:37.620Z,21.94
2023-06-29T23:11:06.073Z,21.94
2023-06-29T23:13:41.202Z,21.95
2023-06-29T23:16:11.176Z,21.99
2023-06-29T23:18:39.646Z,22.06
2023-06-29T23:21:08.205Z,22.08
2023-06-29T23:23:36.586Z,22.14
2023-06-29T23:26:07.499Z,22.15
2023-06-29T23:28:37.306Z,22.16
2023-06-29T23:31:06.316Z,22.15
2023-06-29T23:33:36.248Z,22.10
2023-06-29T23:36:04.896Z,22.04
2023-06-29T23:38:33.279Z,21.98
2023-06-29T23:41:02.259Z,21.92
2023-06-29T23:43:30.747Z,21.88
2023-06-29T23:45:59.116Z,21.80
2023-06-29T23:48:27.497Z,21.74
2023-06-29T23:50:57.294Z,21.80
2023-06-29T23:53:25.696Z,21.85
2023-06-29T23:55:54.058Z,21.94
2023-06-29T23:58:22.778Z,22.02
